Time;durP1;ratioP1;P1;durP2;ratioP2;P2;SDS_P1;SDS_P2;PMS_P1;PMS_P2;Temp;Humidity;BMP_temperature;BMP_pressure;BME280_temperature;BME280_humidity;BME280_pressure;Samples;Min_cycle;Max_cycle;Signal;HPM_P1;HPM_P2
2023/09/23 00:00:50;;;;;;;8.9;3.7;;;;;;;;;;;;;-83
2023/09/23 00:30:56;;;;;;;32.3;19.6;;;;;;;;;;;;;-82
2023/09/23 01:00:56;;;;;;;52.3;27.2;;;;;;;;;;;;;-83
2023/09/23 01:30:49;;;;;;;31.6;15.8;;;;;;;;;;;;;-83
2023/09/23 02:00:53;;;;;;;32.1;18.4;;;;;;;;;;;;;-79
2023/09/23 02:30:52;;;;;;;43.9;27.8;;;;;;;;;;;;;-81
2023/09/23 03:31:14;;;;;;;88.7;36.5;;;;;;;;;;;;;-78
2023/09/23 04:00:55;;;;;;;72;24.7;;;;;;;;;;;;;-78
2023/09/23 05:01:14;;;;;;;43.7;19.1;;;;;;;;;;;;;-79
2023/09/23 05:31:03;;;;;;;35.6;16.1;;;;;;;;;;;;;-79
2023/09/23 06:01:14;;;;;;;20.7;9.8;;;;;;;;;;;;;-80
2023/09/23 06:31:16;;;;;;;30.8;13.4;;;;;;;;;;;;;-78
2023/09/23 07:01:14;;;;;;;64.7;34;;;;;;;;;;;;;-79
2023/09/23 07:31:22;;;;;;;15.9;8.4;;;;;;;;;;;;;-79
2023/09/23 08:01:40;;;;;;;16.6;7.8;;;;;;;;;;;;;-79
2023/09/23 09:01:11;;;;;;;10.4;3.8;;;;;;;;;;;;;-77
2023/09/23 09:31:13;;;;;;;6.7;2.2;;;;;;;;;;;;;-78
2023/09/23 10:01:27;;;;;;;5.6;0.9;;;;;;;;;;;;;-78
2023/09/23 10:31:39;;;;;;;5;1.1;;;;;;;;;;;;;-81
2023/09/23 11:01:29;;;;;;;2.9;0.6;;;;;;;;;;;;;-80
2023/09/23 11:31:21;;;;;;;4;1;;;;;;;;;;;;;-79
2023/09/23 12:01:36;;;;;;;5.6;1.1;;;;;;;;;;;;;-80
2023/09/23 12:31:24;;;;;;;4.1;0.9;;;;;;;;;;;;;-78
2023/09/23 13:01:25;;;;;;;9.7;0.9;;;;;;;;;;;;;-78
2023/09/23 13:31:30;;;;;;;5.1;1.4;;;;;;;;;;;;;-79
2023/09/23 14:01:36;;;;;;;3.7;0.7;;;;;;;;;;;;;-79
2023/09/23 14:31:33;;;;;;;7.9;2.8;;;;;;;;;;;;;-79
2023/09/23 15:01:35;;;;;;;4;0.6;;;;;;;;;;;;;-78
2023/09/23 15:31:37;;;;;;;2;0.4;;;;;;;;;;;;;-79
2023/09/23 16:01:45;;;;;;;3;0.4;;;;;;;;;;;;;-79
2023/09/23 16:31:42;;;;;;;2.5;0.3;;;;;;;;;;;;;-79
2023/09/23 17:01:46;;;;;;;2.3;0.5;;;;;;;;;;;;;-79
2023/09/23 17:31:48;;;;;;;2.3;0.5;;;;;;;;;;;;;-81
2023/09/23 18:01:49;;;;;;;3.5;0.9;;;;;;;;;;;;;-78
2023/09/23 19:01:54;;;;;;;3.9;1.6;;;;;;;;;;;;;-80
2023/09/23 19:31:55;;;;;;;4.6;1.8;;;;;;;;;;;;;-80
2023/09/23 20:01:56;;;;;;;7.1;2.4;;;;;;;;;;;;;-79
2023/09/23 20:31:59;;;;;;;8.8;4.2;;;;;;;;;;;;;-79
2023/09/23 21:01:59;;;;;;;14.6;6.4;;;;;;;;;;;;;-80
2023/09/23 21:32:01;;;;;;;13.5;6.6;;;;;;;;;;;;;-79
2023/09/23 22:02:02;;;;;;;14.1;7.8;;;;;;;;;;;;;-80
2023/09/23 22:32:04;;;;;;;12.6;7.1;;;;;;;;;;;;;-81
2023/09/23 23:02:05;;;;;;;11.4;5;;;;;;;;;;;;;-81
2023/09/23 23:32:06;;;;;;;14.2;5;;;;;;;;;;;;;-81
